createdAt,value
2022-08-30T00:00:36.526Z,19.25
2022-08-30T00:03:07.094Z,19.20
2022-08-30T00:05:35.119Z,19.24
2022-08-30T00:08:02.392Z,19.15
2022-08-30T00:10:29.826Z,19.25
2022-08-30T00:12:58.519Z,19.19
2022-08-30T00:15:26.602Z,19.15
2022-08-30T00:17:54.311Z,19.21
2022-08-30T00:20:25.817Z,19.15
2022-08-30T00:22:53.164Z,19.20
2022-08-30T00:25:21.024Z,19.10
2022-08-30T00:27:48.925Z,19.14
2022-08-30T00:30:17.662Z,19.21
2022-08-30T00:32:44.830Z,19.21
2022-08-30T00:35:14.978Z,19.27
2022-08-30T00:37:43.110Z,19.19
2022-08-30T00:40:12.096Z,19.25
2022-08-30T00:42:39.486Z,19.20
2022-08-30T00:45:21.067Z,19.24
2022-08-30T00:47:48.658Z,19.20
2022-08-30T00:50:19.487Z,19.25
2022-08-30T00:52:50.629Z,19.36
2022-08-30T00:55:19.528Z,19.26
2022-08-30T00:57:50.905Z,19.32
2022-08-30T01:00:18.314Z,19.17
2022-08-30T01:02:45.431Z,19.19
2022-08-30T01:05:16.252Z,19.22
2022-08-30T01:07:43.966Z,19.22
2022-08-30T01:10:13.399Z,19.22
2022-08-30T01:12:42.677Z,19.26
2022-08-30T01:15:10.900Z,19.21
2022-08-30T01:17:38.763Z,19.16
2022-08-30T01:20:15.704Z,19.16
2022-08-30T01:23:04.790Z,19.22
2022-08-30T01:25:35.192Z,19.28
2022-08-30T01:28:08.633Z,19.28
2022-08-30T01:30:39.061Z,19.11
2022-08-30T01:33:08.529Z,19.23
2022-08-30T01:35:49.380Z,19.29
2022-08-30T01:38:18.319Z,19.29
2022-08-30T01:40:45.501Z,19.24
2022-08-30T01:43:14.829Z,19.25
2022-08-30T01:45:42.587Z,19.22
2022-08-30T01:48:12.737Z,19.27
2022-08-30T01:50:41.721Z,19.19
2022-08-30T01:53:13.112Z,19.14
2022-08-30T01:55:41.513Z,19.20
2022-08-30T01:58:09.156Z,19.14
2022-08-30T02:00:36.273Z,19.14
2022-08-30T02:03:03.854Z,19.11
2022-08-30T02:05:31.639Z,19.15
2022-08-30T02:07:59.172Z,19.16
2022-08-30T02:10:26.787Z,19.17
2022-08-30T02:12:53.898Z,19.19
2022-08-30T02:15:21.129Z,19.14
2022-08-30T02:17:48.227Z,19.22
2022-08-30T02:20:15.404Z,19.12
2022-08-30T02:22:47.573Z,19.20
2022-08-30T02:25:20.689Z,19.19
2022-08-30T02:27:48.701Z,19.16
2022-08-30T02:30:15.888Z,19.13
2022-08-30T02:32:43.039Z,19.17
2022-08-30T02:35:10.145Z,19.07
2022-08-30T02:37:37.359Z,19.18
2022-08-30T02:40:07.494Z,19.16
2022-08-30T02:42:34.673Z,19.21
2022-08-30T02:45:01.941Z,19.21
2022-08-30T02:47:29.152Z,19.12
2022-08-30T02:49:56.232Z,19.15
2022-08-30T02:52:27.818Z,19.03
2022-08-30T02:54:55.303Z,19.03
2022-08-30T02:57:22.843Z,19.08
2022-08-30T02:59:50.094Z,19.09
2022-08-30T03:02:17.789Z,19.05
2022-08-30T03:04:45.038Z,18.91
2022-08-30T03:07:12.834Z,19.00
2022-08-30T03:09:40.722Z,18.96
2022-08-30T03:12:09.568Z,18.98
2022-08-30T03:14:38.069Z,18.99
2022-08-30T03:17:12.755Z,18.99
2022-08-30T03:19:43.990Z,19.03
2022-08-30T03:22:12.045Z,19.03
2022-08-30T03:24:40.176Z,19.04
2022-08-30T03:27:08.046Z,19.04
2022-08-30T03:29:35.696Z,18.88
2022-08-30T03:32:03.604Z,18.97
2022-08-30T03:34:30.768Z,18.93
2022-08-30T03:36:58.442Z,18.96
2022-08-30T03:39:25.628Z,18.89
2022-08-30T03:41:53.805Z,18.75
2022-08-30T03:44:21.488Z,18.67
2022-08-30T03:46:49.232Z,18.58
2022-08-30T03:49:16.550Z,18.68
2022-08-30T03:51:43.707Z,18.52
2022-08-30T03:54:10.944Z,18.51
2022-08-30T03:56:38.069Z,18.39
2022-08-30T03:59:05.379Z,18.39
2022-08-30T04:01:32.700Z,18.44
2022-08-30T04:03:59.941Z,18.39
2022-08-30T04:06:28.062Z,18.35
2022-08-30T04:08:55.205Z,18.37
2022-08-30T04:11:22.273Z,18.42
2022-08-30T04:13:51.745Z,18.42
2022-08-30T04:16:19.655Z,18.36
2022-08-30T04:18:47.273Z,18.29
2022-08-30T04:21:14.558Z,18.35
2022-08-30T04:23:42.432Z,18.36
2022-08-30T04:26:09.900Z,18.38
2022-08-30T04:28:37.028Z,18.37
2022-08-30T04:31:11.735Z,18.35
2022-08-30T04:33:40.382Z,18.33
2022-08-30T04:36:09.039Z,18.45
2022-08-30T04:38:37.552Z,18.45
2022-08-30T04:41:14.959Z,18.24
2022-08-30T04:43:43.510Z,18.40
2022-08-30T04:46:11.244Z,18.44
2022-08-30T04:48:38.731Z,18.37
2022-08-30T04:51:07.408Z,18.35
2022-08-30T04:53:35.141Z,18.26
2022-08-30T04:56:06.716Z,18.30
2022-08-30T04:58:33.949Z,18.43
2022-08-30T05:01:01.335Z,18.40
2022-08-30T05:03:29.617Z,18.15
2022-08-30T05:05:56.758Z,18.10
2022-08-30T05:08:24.951Z,18.19
2022-08-30T05:10:52.935Z,18.26
2022-08-30T05:13:35.249Z,18.21
2022-08-30T05:16:06.310Z,18.25
2022-08-30T05:18:33.689Z,18.42
2022-08-30T05:21:09.061Z,17.95
2022-08-30T05:23:37.946Z,18.21
2022-08-30T05:26:14.026Z,18.56
2022-08-30T05:28:41.856Z,18.58
2022-08-30T05:31:25.360Z,18.33
2022-08-30T05:33:54.116Z,18.38
2022-08-30T05:36:24.371Z,18.56
2022-08-30T05:38:51.767Z,18.62
2022-08-30T05:41:20.089Z,18.80
2022-08-30T05:43:48.481Z,18.80
2022-08-30T05:46:19.592Z,18.99
2022-08-30T05:48:47.389Z,19.10
2022-08-30T05:51:17.483Z,19.24
2022-08-30T05:53:45.911Z,19.24
2022-08-30T05:56:15.338Z,19.06
2022-08-30T05:58:43.506Z,19.10
2022-08-30T06:01:26.051Z,19.08
2022-08-30T06:03:55.583Z,19.34
2022-08-30T06:06:23.209Z,19.18
2022-08-30T06:08:50.592Z,19.52
2022-08-30T06:11:20.184Z,19.26
2022-08-30T06:13:47.691Z,19.26
2022-08-30T06:16:17.716Z,19.37
2022-08-30T06:18:45.602Z,19.30
2022-08-30T06:21:22.767Z,19.32
2022-08-30T06:23:50.939Z,19.36
2022-08-30T06:26:18.201Z,19.42
2022-08-30T06:28:45.534Z,19.46
2022-08-30T06:31:15.300Z,19.51
2022-08-30T06:33:43.019Z,19.46
2022-08-30T06:36:14.349Z,19.51
2022-08-30T06:38:41.838Z,19.51
2022-08-30T06:41:11.397Z,19.60
2022-08-30T06:43:38.616Z,19.75
2022-08-30T06:46:11.124Z,20.01
2022-08-30T06:48:38.395Z,20.02
2022-08-30T06:51:06.684Z,20.18
2022-08-30T06:53:34.584Z,20.23
2022-08-30T06:56:05.180Z,20.01
2022-08-30T06:58:33.249Z,20.22
2022-08-30T07:01:00.410Z,20.47
2022-08-30T07:03:27.590Z,20.51
2022-08-30T07:05:57.182Z,20.54
2022-08-30T07:08:25.498Z,20.61
2022-08-30T07:10:53.948Z,20.81
2022-08-30T07:13:23.895Z,20.86
2022-08-30T07:15:51.903Z,20.96
2022-08-30T07:18:37.895Z,21.09
2022-08-30T07:21:12.085Z,21.14
2022-08-30T07:23:39.865Z,21.12
2022-08-30T07:26:09.091Z,21.18
2022-08-30T07:28:40.714Z,21.36
2022-08-30T07:33:40.960Z,21.53
2022-08-30T07:36:08.835Z,21.66
2022-08-30T07:38:36.374Z,21.81
2022-08-30T07:41:04.172Z,21.87
2022-08-30T07:43:33.138Z,21.96
2022-08-30T07:46:08.173Z,21.94
2022-08-30T07:48:35.531Z,21.85
2022-08-30T07:51:05.554Z,22.01
2022-08-30T07:53:32.828Z,21.90
2022-08-30T07:56:00.691Z,21.96
2022-08-30T07:58:32.320Z,22.04
2022-08-30T08:01:00.200Z,21.92
2022-08-30T08:03:27.883Z,22.05
2022-08-30T08:05:55.552Z,22.22
2022-08-30T08:08:23.613Z,22.18
2022-08-30T08:10:50.760Z,22.07
2022-08-30T08:13:17.997Z,22.13
2022-08-30T08:15:45.486Z,22.27
2022-08-30T08:18:13.188Z,22.36
2022-08-30T08:20:40.658Z,22.41
2022-08-30T08:23:08.065Z,22.54
2022-08-30T08:25:40.566Z,22.78
2022-08-30T08:28:07.942Z,22.84
2022-08-30T08:30:37.393Z,23.09
2022-08-30T08:33:06.096Z,23.04
2022-08-30T08:35:33.361Z,23.15
2022-08-30T08:38:00.883Z,23.27
2022-08-30T08:40:31.193Z,23.14
2022-08-30T08:43:11.621Z,23.14
2022-08-30T08:46:00.166Z,23.33
2022-08-30T08:48:59.535Z,23.32
2022-08-30T08:51:51.374Z,23.38
2022-08-30T08:54:44.429Z,23.38
2022-08-30T08:57:15.303Z,23.50
2022-08-30T08:59:44.933Z,23.34
2022-08-30T09:02:25.042Z,23.43
2022-08-30T09:04:58.187Z,23.54
2022-08-30T09:07:29.782Z,23.65
2022-08-30T09:10:00.633Z,23.80
2022-08-30T09:12:28.348Z,23.90
2022-08-30T09:15:12.250Z,24.04
2022-08-30T09:18:18.911Z,23.83
2022-08-30T09:20:49.695Z,24.10
2022-08-30T09:23:17.482Z,24.17
2022-08-30T09:25:53.328Z,24.05
2022-08-30T09:28:43.389Z,24.11
2022-08-30T09:31:30.432Z,24.13
2022-08-30T09:34:03.635Z,24.06
2022-08-30T09:36:51.989Z,24.05
2022-08-30T09:39:31.340Z,24.30
2022-08-30T09:42:18.969Z,24.13
2022-08-30T09:44:46.332Z,24.41
2022-08-30T09:47:28.925Z,24.28
2022-08-30T09:50:10.029Z,24.37
2022-08-30T09:52:58.895Z,24.51
2022-08-30T09:55:31.998Z,24.48
2022-08-30T10:15:21.641Z,25.19
2022-08-30T10:18:04.717Z,25.29
2022-08-30T10:20:42.827Z,25.44
2022-08-30T10:23:16.901Z,25.44
2022-08-30T10:25:53.585Z,25.75
2022-08-30T10:28:34.923Z,25.77
2022-08-30T10:31:07.699Z,25.74
2022-08-30T10:33:44.633Z,25.73
2022-08-30T10:36:14.317Z,25.72
2022-08-30T10:38:48.381Z,25.77
2022-08-30T10:41:41.002Z,25.81
2022-08-30T10:44:26.719Z,25.87
2022-08-30T10:47:23.134Z,25.76
2022-08-30T10:50:15.583Z,25.77
2022-08-30T10:52:58.084Z,25.90
2022-08-30T10:55:37.485Z,26.02
2022-08-30T10:58:06.260Z,26.14
2022-08-30T11:00:45.734Z,26.11
2022-08-30T11:03:44.982Z,26.29
2022-08-30T11:06:25.026Z,26.29
2022-08-30T11:09:01.281Z,26.43
2022-08-30T11:11:40.988Z,26.53
2022-08-30T11:14:11.083Z,26.27
2022-08-30T11:16:45.865Z,26.34
2022-08-30T11:19:24.173Z,26.23
2022-08-30T11:22:08.247Z,26.26
2022-08-30T11:25:02.094Z,26.62
2022-08-30T11:27:51.355Z,26.85
2022-08-30T11:30:24.472Z,26.82
2022-08-30T11:33:03.129Z,27.07
2022-08-30T11:35:55.374Z,27.30
2022-08-30T11:38:25.488Z,27.27
2022-08-30T11:41:09.496Z,27.40
2022-08-30T11:43:39.806Z,27.26
2022-08-30T11:46:27.145Z,27.45
2022-08-30T11:49:23.452Z,27.70
2022-08-30T11:52:27.146Z,27.94
2022-08-30T11:55:26.805Z,27.95
2022-08-30T11:58:19.231Z,27.55
2022-08-30T12:00:51.416Z,27.79
2022-08-30T12:03:20.899Z,28.03
2022-08-30T12:06:04.507Z,27.91
2022-08-30T12:08:34.062Z,27.61
2022-08-30T12:11:01.499Z,27.58
2022-08-30T12:13:34.646Z,27.41
2022-08-30T12:16:13.802Z,27.47
2022-08-30T12:18:47.448Z,27.60
2022-08-30T12:21:21.384Z,27.61
2022-08-30T12:24:03.679Z,27.82
2022-08-30T12:26:41.249Z,27.97
2022-08-30T12:29:18.867Z,27.96
2022-08-30T12:31:52.557Z,27.84
2022-08-30T12:34:41.566Z,28.27
2022-08-30T12:37:28.289Z,27.88
2022-08-30T12:40:07.830Z,28.44
2022-08-30T12:42:41.153Z,28.67
2022-08-30T12:45:15.205Z,28.62
2022-08-30T12:47:51.140Z,28.56
2022-08-30T12:50:23.685Z,28.20
2022-08-30T12:53:21.789Z,28.33
2022-08-30T12:55:55.194Z,28.70
2022-08-30T12:58:46.658Z,28.59
2022-08-30T13:01:19.370Z,27.87
2022-08-30T13:04:03.365Z,27.40
2022-08-30T13:06:43.749Z,28.08
2022-08-30T13:09:23.781Z,28.20
2022-08-30T13:11:51.433Z,28.20
2022-08-30T13:14:24.393Z,27.93
2022-08-30T13:17:07.485Z,27.90
2022-08-30T13:19:41.172Z,27.82
2022-08-30T13:22:39.633Z,27.76
2022-08-30T13:25:09.576Z,27.81
2022-08-30T13:27:38.275Z,27.80
2022-08-30T13:30:13.333Z,27.92
2022-08-30T13:32:42.724Z,27.78
2022-08-30T13:35:11.324Z,27.41
2022-08-30T13:37:49.895Z,27.79
2022-08-30T13:40:21.015Z,27.72
2022-08-30T13:42:49.080Z,27.82
2022-08-30T13:48:06.501Z,27.70
2022-08-30T13:50:33.777Z,27.69
2022-08-30T13:53:00.939Z,27.75
2022-08-30T13:55:28.806Z,27.52
2022-08-30T13:57:57.445Z,27.56
2022-08-30T14:00:26.123Z,27.62
2022-08-30T14:02:57.357Z,27.67
2022-08-30T14:05:49.837Z,27.57
2022-08-30T14:11:19.153Z,27.32
2022-08-30T14:16:37.359Z,27.48
2022-08-30T14:19:05.731Z,27.53
2022-08-30T14:21:33.248Z,27.23
2022-08-30T14:24:00.535Z,27.01
2022-08-30T14:26:32.234Z,27.11
2022-08-30T14:28:59.559Z,27.09
2022-08-30T14:31:26.759Z,27.11
2022-08-30T14:33:53.966Z,26.87
2022-08-30T14:36:21.104Z,26.77
2022-08-30T14:38:49.534Z,26.87
2022-08-30T14:41:17.067Z,26.88
2022-08-30T14:43:44.335Z,26.74
2022-08-30T14:46:12.346Z,26.82
2022-08-30T14:48:39.579Z,26.78
2022-08-30T14:51:14.007Z,26.89
2022-08-30T14:53:41.316Z,26.88
2022-08-30T14:56:19.698Z,26.87
2022-08-30T14:58:51.692Z,26.80
2022-08-30T15:01:19.909Z,26.64
2022-08-30T15:03:47.170Z,26.66
2022-08-30T15:06:14.681Z,26.75
2022-08-30T15:08:43.469Z,26.63
2022-08-30T15:11:18.001Z,26.78
2022-08-30T15:13:45.968Z,26.70
2022-08-30T15:16:24.193Z,26.73
2022-08-30T15:18:51.789Z,26.73
2022-08-30T15:21:28.278Z,26.66
2022-08-30T15:23:55.574Z,26.64
2022-08-30T15:26:24.013Z,26.69
2022-08-30T15:28:51.639Z,26.75
2022-08-30T15:31:21.006Z,26.65
2022-08-30T15:33:50.452Z,26.53
2022-08-30T15:36:17.742Z,26.52
2022-08-30T15:38:45.879Z,26.62
2022-08-30T15:41:13.679Z,26.60
2022-08-30T15:43:41.438Z,26.73
2022-08-30T15:46:31.788Z,26.99
2022-08-30T15:49:02.330Z,27.25
2022-08-30T15:51:30.876Z,27.37
2022-08-30T15:54:11.595Z,27.80
2022-08-30T15:56:39.931Z,28.08
2022-08-30T15:59:10.087Z,28.24
2022-08-30T16:01:37.950Z,28.66
2022-08-30T16:04:05.155Z,35.54
2022-08-30T16:06:37.197Z,39.75
2022-08-30T16:09:06.530Z,36.04
2022-08-30T16:11:34.226Z,39.93
2022-08-30T16:14:02.188Z,34.12
2022-08-30T16:16:31.095Z,32.99
2022-08-30T16:18:58.374Z,31.50
2022-08-30T16:21:28.803Z,30.79
2022-08-30T16:23:58.858Z,30.38
2022-08-30T16:26:27.287Z,33.57
2022-08-30T16:28:55.556Z,37.83
2022-08-30T16:31:23.759Z,38.69
2022-08-30T16:33:52.646Z,39.43
2022-08-30T16:36:22.055Z,36.73
2022-08-30T16:38:52.626Z,34.41
2022-08-30T16:41:23.533Z,32.05
2022-08-30T16:43:53.346Z,30.87
2022-08-30T16:46:27.849Z,30.44
2022-08-30T16:48:57.952Z,30.18
2022-08-30T16:51:27.282Z,30.23
2022-08-30T16:53:56.214Z,30.87
2022-08-30T16:56:25.061Z,31.04
2022-08-30T16:58:57.771Z,30.45
2022-08-30T17:01:29.993Z,30.82
2022-08-30T17:03:57.127Z,30.23
2022-08-30T17:06:24.261Z,29.51
2022-08-30T17:08:56.016Z,30.28
2022-08-30T17:11:24.398Z,31.40
2022-08-30T17:13:52.138Z,30.85
2022-08-30T17:16:22.657Z,29.77
2022-08-30T17:18:59.628Z,29.38
2022-08-30T17:21:31.227Z,28.60
2022-08-30T17:24:02.099Z,28.35
2022-08-30T17:26:35.211Z,27.79
2022-08-30T17:29:03.871Z,27.81
2022-08-30T17:31:31.475Z,27.58
2022-08-30T17:34:02.939Z,27.24
2022-08-30T17:36:36.488Z,27.18
2022-08-30T17:39:11.395Z,26.89
2022-08-30T17:41:48.224Z,26.59
2022-08-30T17:44:20.394Z,26.48
2022-08-30T17:46:47.631Z,26.25
2022-08-30T17:49:15.188Z,26.17
2022-08-30T17:51:44.280Z,26.26
2022-08-30T17:54:12.914Z,26.18
2022-08-30T17:56:41.385Z,26.04
2022-08-30T17:59:15.996Z,25.99
2022-08-30T18:01:44.876Z,25.85
2022-08-30T18:04:14.892Z,25.83
2022-08-30T18:06:47.892Z,25.81
2022-08-30T18:09:15.054Z,25.70
2022-08-30T18:11:42.316Z,25.50
2022-08-30T18:14:11.389Z,25.41
2022-08-30T18:16:49.851Z,25.23
2022-08-30T18:19:23.885Z,25.17
2022-08-30T18:21:51.479Z,24.91
2022-08-30T18:24:18.906Z,24.86
2022-08-30T18:26:46.535Z,24.72
2022-08-30T18:29:13.902Z,24.57
2022-08-30T18:31:41.421Z,24.53
2022-08-30T18:34:12.253Z,24.57
2022-08-30T18:36:40.629Z,24.54
2022-08-30T18:39:08.864Z,24.46
2022-08-30T18:41:42.201Z,24.37
2022-08-30T18:44:26.834Z,24.27
2022-08-30T18:46:56.824Z,24.12
2022-08-30T18:49:28.664Z,24.09
2022-08-30T18:51:55.878Z,23.87
2022-08-30T18:54:23.873Z,23.95
2022-08-30T18:56:51.732Z,23.98
2022-08-30T18:59:19.097Z,24.00
2022-08-30T19:01:47.141Z,24.05
2022-08-30T19:04:29.520Z,23.90
2022-08-30T19:07:02.475Z,23.88
2022-08-30T19:09:30.348Z,23.90
2022-08-30T19:11:57.521Z,23.70
2022-08-30T19:14:24.612Z,23.76
2022-08-30T19:16:56.262Z,23.75
2022-08-30T19:19:23.806Z,23.63
2022-08-30T19:21:51.818Z,23.71
2022-08-30T19:24:20.213Z,23.73
2022-08-30T19:26:48.730Z,23.73
2022-08-30T19:29:15.935Z,23.72
2022-08-30T19:31:43.765Z,23.69
2022-08-30T19:34:11.994Z,23.63
2022-08-30T19:36:39.417Z,23.56
2022-08-30T19:39:07.398Z,23.53
2022-08-30T19:41:34.663Z,23.56
2022-08-30T19:44:03.257Z,23.40
2022-08-30T19:46:32.445Z,23.42
2022-08-30T19:49:01.086Z,23.29
2022-08-30T19:51:28.288Z,23.26
2022-08-30T19:53:58.761Z,23.27
2022-08-30T19:56:26.545Z,23.24
2022-08-30T19:58:54.155Z,23.17
2022-08-30T20:01:32.413Z,23.26
2022-08-30T20:04:02.019Z,23.19
2022-08-30T20:06:30.670Z,23.24
2022-08-30T20:08:58.353Z,23.12
2022-08-30T20:11:28.697Z,23.08
2022-08-30T20:13:56.140Z,23.06
2022-08-30T20:16:28.378Z,23.03
2022-08-30T20:19:06.516Z,23.04
2022-08-30T20:21:34.040Z,22.98
2022-08-30T20:24:03.324Z,22.99
2022-08-30T20:26:34.149Z,23.05
2022-08-30T20:29:03.079Z,23.01
2022-08-30T20:31:30.544Z,22.90
2022-08-30T20:33:58.041Z,22.95
2022-08-30T20:36:25.191Z,23.00
2022-08-30T20:38:52.785Z,22.85
2022-08-30T20:41:20.176Z,22.82
2022-08-30T20:43:48.808Z,22.77
2022-08-30T20:46:19.955Z,22.53
2022-08-30T20:48:47.801Z,22.76
2022-08-30T20:51:18.822Z,22.77
2022-08-30T20:53:46.121Z,22.82
2022-08-30T20:56:16.504Z,22.57
2022-08-30T20:58:44.810Z,22.40
2022-08-30T21:01:13.338Z,22.36
2022-08-30T21:03:40.969Z,22.39
2022-08-30T21:06:08.403Z,22.11
2022-08-30T21:08:35.515Z,22.18
2022-08-30T21:11:02.624Z,22.26
2022-08-30T21:13:30.716Z,22.21
2022-08-30T21:16:03.842Z,22.12
2022-08-30T21:18:33.896Z,21.73
2022-08-30T21:21:12.137Z,22.00
2022-08-30T21:23:39.925Z,21.41
2022-08-30T21:26:08.204Z,21.75
2022-08-30T21:28:36.235Z,21.90
2022-08-30T21:31:12.710Z,21.91
2022-08-30T21:33:42.719Z,22.00
2022-08-30T21:36:29.493Z,22.05
2022-08-30T21:39:00.702Z,22.19
2022-08-30T21:41:30.309Z,22.13
2022-08-30T21:43:58.145Z,21.94
2022-08-30T21:46:27.148Z,21.95
2022-08-30T21:48:54.591Z,21.96
2022-08-30T21:51:21.666Z,22.09
2022-08-30T21:53:48.797Z,22.13
2022-08-30T21:56:21.639Z,22.17
2022-08-30T21:58:50.329Z,22.18
2022-08-30T22:01:18.767Z,22.09
2022-08-30T22:03:46.603Z,22.18
2022-08-30T22:06:14.426Z,22.12
2022-08-30T22:08:44.909Z,22.06
2022-08-30T22:11:19.584Z,22.04
2022-08-30T22:13:48.624Z,22.17
2022-08-30T22:16:16.492Z,22.10
2022-08-30T22:18:44.508Z,22.03
2022-08-30T22:21:15.193Z,21.93
2022-08-30T22:23:42.721Z,21.95
2022-08-30T22:26:10.846Z,21.90
2022-08-30T22:28:38.265Z,21.98
2022-08-30T22:31:08.350Z,21.99
2022-08-30T22:33:36.090Z,22.07
2022-08-30T22:36:08.749Z,21.93
2022-08-30T22:38:36.457Z,21.95
2022-08-30T22:41:03.624Z,21.94
2022-08-30T22:43:30.896Z,21.86
2022-08-30T22:45:58.353Z,21.89
2022-08-30T22:48:25.571Z,21.86
2022-08-30T22:50:52.750Z,21.77
2022-08-30T22:53:20.092Z,21.82
2022-08-30T22:55:47.204Z,21.73
2022-08-30T22:58:14.343Z,21.85
2022-08-30T23:00:46.395Z,21.60
2022-08-30T23:03:22.166Z,21.65
2022-08-30T23:05:49.286Z,21.67
2022-08-30T23:08:16.437Z,21.61
2022-08-30T23:10:44.313Z,21.56
2022-08-30T23:13:11.498Z,21.62
2022-08-30T23:15:38.673Z,21.63
2022-08-30T23:18:05.824Z,21.58
2022-08-30T23:20:33.351Z,21.39
2022-08-30T23:23:00.505Z,21.43
2022-08-30T23:25:52.276Z,21.35
2022-08-30T23:28:39.217Z,21.29
2022-08-30T23:31:31.152Z,21.19
2022-08-30T23:34:17.336Z,21.15
2022-08-30T23:37:02.981Z,21.15
2022-08-30T23:39:48.843Z,21.05
2022-08-30T23:42:34.710Z,21.12
2022-08-30T23:45:20.000Z,21.07
2022-08-30T23:48:05.700Z,20.89
2022-08-30T23:50:51.490Z,20.95
2022-08-30T23:53:36.902Z,20.87
2022-08-30T23:56:22.562Z,20.84
2022-08-30T23:59:07.908Z,20.98
